Terminal Aerodrome Forecast
Issued by NWS Albany, NY

Home | Current Version | Previous Version | Text Only | Print | Product List | Glossary On
Versions: 1 2 3 4 5 6 7 8 9 10 11 12 13 14
000
FTUS41 KALY 212323
TAFALB
TAF
KALB 212323Z 2200/2224 29006KT P6SM FEW250
     FM220600 26004KT P6SM SCT250
     FM221100 VRB03KT P6SM SCT035 BKN180 OVC250
     FM221600 34004KT P6SM BKN040 BKN120 OVC150=

USA.gov is the U.S. government's official web portal to all federal, state and local government web resources and services.